createdAt,value
2019-01-13T00:00:25.483Z,99196.23
2019-01-13T00:00:56.685Z,99201.74
2019-01-13T00:01:27.882Z,99202.62
2019-01-13T00:01:59.103Z,99192.36
2019-01-13T00:02:30.346Z,99191.13
2019-01-13T00:03:01.512Z,99198.83
2019-01-13T00:03:34.964Z,99200.08
2019-01-13T00:04:06.180Z,99194.95
2019-01-13T00:04:37.387Z,99193.28
2019-01-13T00:05:08.888Z,99197.98
2019-01-13T00:05:40.123Z,99196.70
2019-01-13T00:06:11.320Z,99196.70
2019-01-13T00:06:42.570Z,99196.64
2019-01-13T00:07:13.759Z,99200.48
2019-01-13T00:07:45.016Z,99196.61
2019-01-13T00:08:16.299Z,99194.02
2019-01-13T00:08:47.475Z,99195.27
2019-01-13T00:09:18.676Z,99202.11
2019-01-13T00:09:49.857Z,99194.83
2019-01-13T00:10:21.080Z,99198.70
2019-01-13T00:10:52.252Z,99195.70
2019-01-13T00:11:25.708Z,99196.95
2019-01-13T00:11:56.923Z,99199.08
2019-01-13T00:12:28.132Z,99198.63
2019-01-13T00:12:59.370Z,99198.59
2019-01-13T00:13:30.626Z,99196.88
2019-01-13T00:14:01.817Z,99200.28
2019-01-13T00:14:33.077Z,99203.65
2019-01-13T00:15:04.393Z,99198.52
2019-01-13T00:15:35.626Z,99201.05
2019-01-13T00:16:06.838Z,99205.28
2019-01-13T00:16:38.079Z,99200.95
2019-01-13T00:17:09.313Z,99204.84
2019-01-13T00:17:40.574Z,99201.40
2019-01-13T00:18:11.777Z,99203.96
2019-01-13T00:18:42.982Z,99206.48
2019-01-13T00:19:14.192Z,99202.19
2019-01-13T00:19:45.445Z,99205.19
2019-01-13T00:20:16.652Z,99206.88
2019-01-13T00:20:47.843Z,99197.91
2019-01-13T00:21:19.061Z,99200.45
2019-01-13T00:21:50.263Z,99207.22
2019-01-13T00:22:21.644Z,99205.04
2019-01-13T00:22:52.841Z,99200.30
2019-01-13T00:23:24.050Z,99196.81
2019-01-13T00:23:55.248Z,99195.08
2019-01-13T00:24:26.500Z,99195.43
2019-01-13T00:24:57.690Z,99195.43
2019-01-13T00:25:28.961Z,99201.44
2019-01-13T00:26:00.195Z,99199.27
2019-01-13T00:26:31.397Z,99202.64
2019-01-13T00:27:02.596Z,99202.64
2019-01-13T00:27:33.822Z,99205.20
2019-01-13T00:28:05.017Z,99204.72
2019-01-13T00:28:36.189Z,99200.42
2019-01-13T00:29:08.132Z,99205.94
2019-01-13T00:29:39.308Z,99203.38
2019-01-13T00:30:10.539Z,99207.20
2019-01-13T00:30:41.776Z,99211.44
2019-01-13T00:31:13.064Z,99203.75
2019-01-13T00:31:44.258Z,99202.48
2019-01-13T00:32:15.451Z,99203.75
2019-01-13T00:32:46.654Z,99206.25
2019-01-13T00:33:17.845Z,99211.38
2019-01-13T00:33:49.084Z,99207.08
2019-01-13T00:34:20.331Z,99209.64
2019-01-13T00:34:51.584Z,99209.64
2019-01-13T00:35:22.816Z,99206.24
2019-01-13T00:35:54.032Z,99209.64
2019-01-13T00:36:25.242Z,99204.08
2019-01-13T00:36:56.457Z,99207.91
2019-01-13T00:37:27.645Z,99204.52
2019-01-13T00:37:58.853Z,99205.78
2019-01-13T00:38:30.094Z,99202.34
2019-01-13T00:39:01.353Z,99204.90
2019-01-13T00:39:32.613Z,99199.80
2019-01-13T00:40:03.825Z,99203.23
2019-01-13T00:40:37.536Z,99200.61
2019-01-13T00:41:08.811Z,99198.83
2019-01-13T00:41:40.053Z,99198.75
2019-01-13T00:42:11.251Z,99201.25
2019-01-13T00:42:42.478Z,99201.25
2019-01-13T00:43:13.708Z,99202.13
2019-01-13T00:43:44.907Z,99198.69
2019-01-13T00:44:16.136Z,99199.48
2019-01-13T00:44:47.321Z,99199.06
2019-01-13T00:45:18.501Z,99203.34
2019-01-13T00:45:49.737Z,99202.00
2019-01-13T00:46:20.947Z,99198.98
2019-01-13T00:46:52.221Z,99198.98
2019-01-13T00:47:23.472Z,99194.25
2019-01-13T00:47:54.736Z,99193.80
2019-01-13T00:48:25.948Z,99195.95
2019-01-13T00:48:57.155Z,99199.73
2019-01-13T00:49:28.332Z,99196.73
2019-01-13T00:49:59.541Z,99195.02
2019-01-13T00:50:30.733Z,99198.45
2019-01-13T00:51:01.932Z,99200.13
2019-01-13T00:51:33.184Z,99192.45
2019-01-13T00:52:04.361Z,99194.17
2019-01-13T00:52:35.569Z,99195.02
2019-01-13T00:53:06.810Z,99197.56
2019-01-13T00:53:38.014Z,99190.71
2019-01-13T00:54:09.223Z,99197.11
2019-01-13T00:54:40.416Z,99189.88
2019-01-13T00:55:11.653Z,99200.55
2019-01-13T00:55:44.884Z,99197.11
2019-01-13T00:56:16.075Z,99199.22
2019-01-13T00:56:47.284Z,99187.77
2019-01-13T00:57:18.489Z,99188.62
2019-01-13T00:57:49.683Z,99189.05
2019-01-13T00:58:21.644Z,99187.34
2019-01-13T00:58:52.842Z,99185.66
2019-01-13T00:59:24.068Z,99184.78
2019-01-13T00:59:55.264Z,99186.50
2019-01-13T01:00:27.011Z,99188.20
2019-01-13T01:01:02.071Z,99189.05
2019-01-13T01:01:33.280Z,99187.31
2019-01-13T01:02:04.472Z,99183.42
2019-01-13T01:02:35.719Z,99183.42
2019-01-13T01:03:09.489Z,99186.41
2019-01-13T01:03:40.687Z,99180.47
2019-01-13T01:04:11.874Z,99183.88
2019-01-13T01:04:43.083Z,99177.92
2019-01-13T01:05:14.319Z,99180.92
2019-01-13T01:05:45.571Z,99179.66
2019-01-13T01:06:16.819Z,99181.81
2019-01-13T01:06:48.057Z,99181.38
2019-01-13T01:07:19.298Z,99176.27
2019-01-13T01:07:50.547Z,99179.73
2019-01-13T01:08:21.764Z,99182.34
2019-01-13T01:08:52.955Z,99184.08
2019-01-13T01:09:24.206Z,99178.13
2019-01-13T01:09:57.707Z,99180.27
2019-01-13T01:10:28.909Z,99175.97
2019-01-13T01:11:00.198Z,99171.69
2019-01-13T01:11:31.449Z,99171.69
2019-01-13T01:12:02.639Z,99180.25
2019-01-13T01:12:33.946Z,99177.30
2019-01-13T01:13:05.190Z,99182.86
2019-01-13T01:13:36.422Z,99170.47
2019-01-13T01:14:09.887Z,99170.47
2019-01-13T01:14:41.147Z,99178.59
2019-01-13T01:15:12.302Z,99176.09
2019-01-13T01:15:43.519Z,99170.97
2019-01-13T01:16:14.767Z,99168.42
2019-01-13T01:16:46.003Z,99168.86
2019-01-13T01:17:17.236Z,99168.81
2019-01-13T01:17:48.436Z,99168.86
2019-01-13T01:18:19.608Z,99166.30
2019-01-13T01:18:50.842Z,99163.30
2019-01-13T01:19:22.079Z,99163.30
2019-01-13T01:19:53.265Z,99163.30
2019-01-13T01:20:24.497Z,99165.41
2019-01-13T01:20:55.708Z,99156.48
2019-01-13T01:21:26.941Z,99153.06
2019-01-13T01:21:58.145Z,99158.69
2019-01-13T01:22:29.424Z,99159.98
2019-01-13T01:23:00.639Z,99159.16
2019-01-13T01:23:31.850Z,99157.44
2019-01-13T01:24:03.037Z,99159.59
2019-01-13T01:24:34.315Z,99073.77
2019-01-13T01:25:05.518Z,99158.64
2019-01-13T01:25:36.709Z,99158.64
2019-01-13T01:26:07.998Z,99159.48
2019-01-13T01:26:39.222Z,99158.25
2019-01-13T01:27:10.441Z,99153.52
2019-01-13T01:27:41.632Z,99157.30
2019-01-13T01:28:12.899Z,99157.30
2019-01-13T01:28:44.470Z,99156.85
2019-01-13T01:29:15.788Z,99153.84
2019-01-13T01:29:47.043Z,99147.44
2019-01-13T01:30:18.333Z,99153.44
2019-01-13T01:30:49.525Z,99155.13
2019-01-13T01:31:20.722Z,99148.73
2019-01-13T01:31:51.921Z,99153.39
2019-01-13T01:32:23.107Z,99155.95
2019-01-13T01:32:54.329Z,99149.11
2019-01-13T01:33:26.089Z,99147.83
2019-01-13T01:33:57.479Z,99147.83
2019-01-13T01:34:28.717Z,99146.16
2019-01-13T01:34:59.936Z,99137.20
2019-01-13T01:35:31.186Z,99142.31
2019-01-13T01:36:02.376Z,99143.16
2019-01-13T01:36:33.630Z,99132.86
2019-01-13T01:37:04.896Z,99138.03
2019-01-13T01:37:36.112Z,99141.87
2019-01-13T01:38:07.339Z,99135.43
2019-01-13T01:38:38.542Z,99135.43
2019-01-13T01:39:09.749Z,99135.43
2019-01-13T01:39:40.950Z,99136.75
2019-01-13T01:40:12.129Z,99132.47
2019-01-13T01:40:46.433Z,99135.88
2019-01-13T01:41:17.677Z,99132.03
2019-01-13T01:41:48.883Z,99126.02
2019-01-13T01:42:20.127Z,99126.02
2019-01-13T01:42:51.336Z,99128.58
2019-01-13T01:43:22.538Z,99132.41
2019-01-13T01:43:53.771Z,99129.48
2019-01-13T01:44:25.019Z,99127.36
2019-01-13T01:44:56.198Z,99127.73
2019-01-13T01:45:27.422Z,99126.01
2019-01-13T01:45:58.663Z,99123.45
2019-01-13T01:46:29.868Z,99115.39
2019-01-13T01:47:01.106Z,99126.53
2019-01-13T01:47:32.360Z,99120.64
2019-01-13T01:48:03.594Z,99115.09
2019-01-13T01:48:34.818Z,99106.14
2019-01-13T01:49:06.078Z,99107.02
2019-01-13T01:49:37.344Z,99118.08
2019-01-13T01:50:08.553Z,99118.08
2019-01-13T01:50:39.769Z,99111.69
2019-01-13T01:51:10.976Z,99112.08
2019-01-13T01:51:42.212Z,99121.47
2019-01-13T01:52:13.480Z,99117.19
2019-01-13T01:52:44.697Z,99112.47
2019-01-13T01:53:18.177Z,99109.90
2019-01-13T01:53:49.403Z,99109.90
2019-01-13T01:54:20.605Z,99111.17
2019-01-13T01:54:51.835Z,99117.13
2019-01-13T01:55:23.030Z,99108.61
2019-01-13T01:55:54.269Z,99116.70
2019-01-13T01:56:25.535Z,99117.56
2019-01-13T01:56:56.810Z,99106.05
2019-01-13T01:57:28.039Z,99107.33
2019-01-13T01:57:59.247Z,99107.33
2019-01-13T01:58:30.441Z,99116.70
2019-01-13T01:59:01.629Z,99114.56
2019-01-13T01:59:32.896Z,99112.84
2019-01-13T02:00:04.139Z,99114.12
2019-01-13T02:00:40.585Z,99112.41
2019-01-13T02:01:08.400Z,99112.41
2019-01-13T02:01:41.864Z,99100.96
2019-01-13T02:02:13.123Z,99105.73
2019-01-13T02:02:44.314Z,99105.36
2019-01-13T02:03:15.557Z,99096.84
2019-01-13T02:03:46.774Z,99096.84
2019-01-13T02:04:18.042Z,99101.52
2019-01-13T02:04:49.312Z,99099.85
2019-01-13T02:05:20.671Z,99099.47
2019-01-13T02:05:51.933Z,99096.52
2019-01-13T02:06:23.183Z,99103.35
2019-01-13T02:06:54.443Z,99096.52
2019-01-13T02:07:25.643Z,99095.63
2019-01-13T02:07:59.045Z,99095.63
2019-01-13T02:08:30.221Z,99090.95
2019-01-13T02:09:01.463Z,99095.24
2019-01-13T02:09:32.641Z,99090.13
2019-01-13T02:10:03.910Z,99096.52
2019-01-13T02:10:35.132Z,99096.52
2019-01-13T02:11:06.375Z,99094.01
2019-01-13T02:11:37.547Z,99091.41
2019-01-13T02:12:08.854Z,99087.91
2019-01-13T02:12:40.068Z,99087.91
2019-01-13T02:13:11.302Z,99086.23
2019-01-13T02:13:42.524Z,99091.39
2019-01-13T02:14:13.733Z,99090.96
2019-01-13T02:14:44.954Z,99089.68
2019-01-13T02:15:16.264Z,99087.95
2019-01-13T02:15:47.476Z,99081.60
2019-01-13T02:16:18.686Z,99093.12
2019-01-13T02:16:50.806Z,99088.84
2019-01-13T02:17:22.025Z,99085.50
2019-01-13T02:17:53.259Z,99081.66
2019-01-13T02:18:24.475Z,99083.38
2019-01-13T02:18:55.741Z,99080.83
2019-01-13T02:19:27.019Z,99069.74
2019-01-13T02:19:58.237Z,99076.99
2019-01-13T02:20:29.473Z,99076.99
2019-01-13T02:21:00.659Z,99079.60
2019-01-13T02:21:31.837Z,99074.92
2019-01-13T02:22:03.071Z,99070.64
2019-01-13T02:22:34.299Z,99073.64
2019-01-13T02:23:05.556Z,99072.36
2019-01-13T02:23:37.934Z,99071.13
2019-01-13T02:24:09.159Z,99075.50
2019-01-13T02:24:40.387Z,99067.86
2019-01-13T02:25:11.569Z,99070.47
2019-01-13T02:25:43.655Z,99075.59
2019-01-13T02:26:14.847Z,99073.88
2019-01-13T02:26:46.125Z,99068.39
2019-01-13T02:27:17.395Z,99076.55
2019-01-13T02:27:48.609Z,99072.70
2019-01-13T02:28:19.905Z,99071.83
2019-01-13T02:28:51.189Z,99071.83
2019-01-13T02:29:22.392Z,99076.91
2019-01-13T02:29:53.646Z,99072.15
2019-01-13T02:30:24.898Z,99075.55
2019-01-13T02:30:56.110Z,99068.66
2019-01-13T02:31:28.149Z,99069.50
2019-01-13T02:31:59.350Z,99069.50
2019-01-13T02:32:30.543Z,99072.91
2019-01-13T02:33:01.752Z,99072.91
2019-01-13T02:33:33.008Z,99069.49
2019-01-13T02:34:04.209Z,99060.94
2019-01-13T02:34:35.392Z,99066.94
2019-01-13T02:35:06.617Z,99069.50
2019-01-13T02:35:37.882Z,99065.27
2019-01-13T02:36:09.101Z,99067.86
2019-01-13T02:36:40.311Z,99066.58
2019-01-13T02:37:11.565Z,99067.39
2019-01-13T02:37:42.750Z,99066.98
2019-01-13T02:38:13.979Z,99055.45
2019-01-13T02:38:45.236Z,99060.98
2019-01-13T02:39:16.532Z,99065.66
2019-01-13T02:39:47.803Z,99059.22
2019-01-13T02:40:19.096Z,99058.33
2019-01-13T02:40:50.345Z,99058.33
2019-01-13T02:41:21.595Z,99067.78
2019-01-13T02:41:52.825Z,99060.09
2019-01-13T02:42:24.078Z,99057.53
2019-01-13T02:42:55.295Z,99067.82
2019-01-13T02:43:26.506Z,99061.42
2019-01-13T02:43:57.726Z,99057.98
2019-01-13T02:44:28.993Z,99057.98
2019-01-13T02:45:00.266Z,99060.50
2019-01-13T02:45:31.491Z,99048.93
2019-01-13T02:46:02.795Z,99062.22
2019-01-13T02:46:34.060Z,99063.53
2019-01-13T02:47:05.356Z,99064.42
2019-01-13T02:47:36.569Z,99062.70
2019-01-13T02:48:07.780Z,99061.72
2019-01-13T02:48:39.073Z,99060.89
2019-01-13T02:49:10.303Z,99063.84
2019-01-13T02:49:41.583Z,99062.95
2019-01-13T02:50:12.853Z,99065.02
2019-01-13T02:50:44.107Z,99065.02
2019-01-13T02:51:15.306Z,99060.69
2019-01-13T02:51:46.575Z,99052.12
2019-01-13T02:52:17.798Z,99052.12
2019-01-13T02:52:49.054Z,99059.80
2019-01-13T02:53:20.347Z,99060.62
2019-01-13T02:53:51.595Z,99058.91
2019-01-13T02:54:22.914Z,99057.19
2019-01-13T02:54:54.898Z,99059.70
2019-01-13T02:55:26.134Z,99059.75
2019-01-13T02:55:57.378Z,99058.92
2019-01-13T02:56:28.693Z,99058.07
2019-01-13T02:56:59.891Z,99058.07
2019-01-13T02:57:31.139Z,99057.63
2019-01-13T02:58:02.364Z,99063.09
2019-01-13T02:58:33.595Z,99063.92
2019-01-13T02:59:04.816Z,99055.30
2019-01-13T02:59:36.079Z,99055.30
2019-01-13T03:00:07.344Z,99062.13
2019-01-13T03:00:38.568Z,99058.68
2019-01-13T03:01:09.770Z,99059.52
2019-01-13T03:01:41.061Z,99057.78
2019-01-13T03:02:13.093Z,99061.17
2019-01-13T03:02:44.390Z,99054.73
2019-01-13T03:03:15.580Z,99055.16
2019-01-13T03:03:47.859Z,99060.62
2019-01-13T03:04:19.131Z,99061.89
2019-01-13T03:04:50.396Z,99055.55
2019-01-13T03:05:21.683Z,98965.95
2019-01-13T03:05:52.937Z,99059.33
2019-01-13T03:06:24.179Z,99059.39
2019-01-13T03:06:55.446Z,99052.60
2019-01-13T03:07:26.662Z,99050.89
2019-01-13T03:07:57.994Z,99050.05
2019-01-13T03:08:29.318Z,99053.50
2019-01-13T03:09:00.604Z,99046.67
2019-01-13T03:09:31.816Z,99046.33
2019-01-13T03:10:03.083Z,99045.50
2019-01-13T03:10:34.290Z,99046.35
2019-01-13T03:11:05.652Z,99045.51
2019-01-13T03:11:36.847Z,99042.06
2019-01-13T03:12:08.103Z,99042.90
2019-01-13T03:12:39.307Z,99042.52
2019-01-13T03:13:10.570Z,99040.00
2019-01-13T03:13:41.818Z,99040.40
2019-01-13T03:14:13.066Z,99044.23
2019-01-13T03:14:44.256Z,99038.16
2019-01-13T03:15:19.317Z,99035.66
2019-01-13T03:15:48.420Z,98852.27
2019-01-13T03:16:19.666Z,99039.95
2019-01-13T03:16:50.945Z,99040.39
2019-01-13T03:17:22.182Z,99045.90
2019-01-13T03:17:53.492Z,99038.23
2019-01-13T03:18:24.755Z,99038.23
2019-01-13T03:18:56.022Z,99036.95
2019-01-13T03:19:27.260Z,99042.90
2019-01-13T03:19:58.480Z,99039.94
2019-01-13T03:20:29.790Z,99042.89
2019-01-13T03:21:01.757Z,99034.82
2019-01-13T03:21:33.027Z,99031.82
2019-01-13T03:22:04.287Z,99033.10
2019-01-13T03:22:35.507Z,99038.66
2019-01-13T03:23:06.659Z,99036.50
2019-01-13T03:23:37.896Z,99027.92
2019-01-13T03:24:09.123Z,99031.27
2019-01-13T03:24:40.331Z,99026.98
2019-01-13T03:25:12.120Z,99028.63
2019-01-13T03:25:43.666Z,99025.64
2019-01-13T03:26:15.013Z,99023.91
2019-01-13T03:26:46.299Z,99029.59
2019-01-13T03:27:17.581Z,99029.59
2019-01-13T03:27:48.818Z,99030.44
2019-01-13T03:28:20.057Z,99024.98
2019-01-13T03:28:51.362Z,99028.05
2019-01-13T03:29:22.560Z,99023.42
2019-01-13T03:29:53.799Z,99023.88
2019-01-13T03:30:25.074Z,99023.83
2019-01-13T03:30:56.395Z,99016.98
2019-01-13T03:31:27.604Z,99028.00
2019-01-13T03:31:58.807Z,99023.33
2019-01-13T03:32:30.066Z,99023.33
2019-01-13T03:33:01.327Z,99030.16
2019-01-13T03:33:32.571Z,99027.55
2019-01-13T03:34:03.788Z,99032.87
2019-01-13T03:34:35.005Z,99031.13
2019-01-13T03:35:06.218Z,99036.19
2019-01-13T03:35:37.495Z,99028.89
2019-01-13T03:36:08.709Z,99037.19
2019-01-13T03:36:39.992Z,99034.63
2019-01-13T03:37:11.239Z,99032.51
2019-01-13T03:37:42.545Z,99035.84
2019-01-13T03:38:13.758Z,99045.24
2019-01-13T03:38:44.994Z,99037.12
2019-01-13T03:39:18.494Z,99036.67
2019-01-13T03:39:49.720Z,99039.22
2019-01-13T03:40:20.989Z,99040.32
2019-01-13T03:40:52.193Z,99037.33
2019-01-13T03:41:23.576Z,99038.60
2019-01-13T03:41:54.783Z,99042.42
2019-01-13T03:42:26.048Z,99042.37
2019-01-13T03:42:57.348Z,99039.34
2019-01-13T03:43:28.575Z,99039.80
2019-01-13T03:43:59.839Z,99041.53
2019-01-13T03:44:31.159Z,99033.81
2019-01-13T03:45:02.379Z,99040.63
2019-01-13T03:45:33.605Z,99043.17
2019-01-13T03:46:04.889Z,99038.89
2019-01-13T03:46:36.136Z,99038.00
2019-01-13T03:47:07.402Z,99040.53
2019-01-13T03:47:38.689Z,99038.73
2019-01-13T03:48:09.963Z,99045.11
2019-01-13T03:48:41.227Z,99044.28
2019-01-13T03:49:12.492Z,99045.11
2019-01-13T03:49:43.745Z,99046.38
2019-01-13T03:50:15.056Z,99050.15
2019-01-13T03:50:46.299Z,99044.14
2019-01-13T03:51:17.642Z,99055.60
2019-01-13T03:51:48.947Z,99044.50
2019-01-13T03:52:20.207Z,99047.48
2019-01-13T03:52:53.303Z,99051.71
2019-01-13T03:53:24.508Z,99049.58
2019-01-13T03:53:55.876Z,99049.13
2019-01-13T03:54:27.128Z,99048.69
2019-01-13T03:54:58.349Z,99050.86
2019-01-13T03:55:29.603Z,99046.15
2019-01-13T03:56:00.838Z,99041.86
2019-01-13T03:56:32.099Z,99043.14
2019-01-13T03:57:03.318Z,99052.52
2019-01-13T03:57:34.569Z,99047.34
2019-01-13T03:58:05.816Z,99044.39
2019-01-13T03:58:37.064Z,99049.89
2019-01-13T03:59:08.288Z,99047.34
2019-01-13T03:59:39.547Z,99052.06
2019-01-13T04:00:10.771Z,99050.80
2019-01-13T04:00:42.049Z,99048.23
2019-01-13T04:01:18.518Z,99049.95
2019-01-13T04:01:46.314Z,99051.23
2019-01-13T04:02:17.537Z,99050.32
2019-01-13T04:02:48.774Z,99053.73
2019-01-13T04:03:22.260Z,99050.70
2019-01-13T04:03:53.480Z,99053.73
2019-01-13T04:04:24.689Z,99049.97
2019-01-13T04:04:55.964Z,99049.08
2019-01-13T04:05:27.174Z,99048.23
2019-01-13T04:05:58.444Z,99051.64
2019-01-13T04:06:29.670Z,99046.14
2019-01-13T04:07:00.949Z,99052.55
2019-01-13T04:07:32.213Z,99049.98
2019-01-13T04:08:03.430Z,99058.06
2019-01-13T04:08:34.686Z,99052.12
2019-01-13T04:09:05.880Z,99056.42
2019-01-13T04:09:37.109Z,99057.80
2019-01-13T04:10:08.330Z,99055.77
2019-01-13T04:10:39.486Z,99059.62
2019-01-13T04:11:10.724Z,99050.16
2019-01-13T04:11:41.971Z,99055.85
2019-01-13T04:12:13.240Z,99058.42
2019-01-13T04:12:44.467Z,99059.32
2019-01-13T04:13:15.857Z,99062.34
2019-01-13T04:13:47.062Z,99061.09
2019-01-13T04:14:18.319Z,99060.30
2019-01-13T04:14:49.607Z,99059.42
2019-01-13T04:15:20.838Z,99055.60
2019-01-13T04:15:52.063Z,99059.50
2019-01-13T04:16:23.324Z,99057.84
2019-01-13T04:16:54.542Z,99056.11
2019-01-13T04:17:25.852Z,99052.28
2019-01-13T04:17:57.107Z,99061.22
2019-01-13T04:18:28.324Z,99055.23
2019-01-13T04:18:59.592Z,99054.77
2019-01-13T04:19:30.868Z,99055.20
2019-01-13T04:20:03.163Z,99053.48
2019-01-13T04:20:34.480Z,99056.48
2019-01-13T04:21:05.793Z,99055.65
2019-01-13T04:21:37.052Z,99055.65
2019-01-13T04:22:08.306Z,99053.48
2019-01-13T04:22:39.608Z,99061.13
2019-01-13T04:23:10.873Z,99058.53
2019-01-13T04:23:42.199Z,99051.70
2019-01-13T04:24:13.451Z,99058.53
2019-01-13T04:24:44.743Z,99058.98
2019-01-13T04:25:15.914Z,99057.75
2019-01-13T04:25:47.187Z,99057.26
2019-01-13T04:26:18.445Z,99059.40
2019-01-13T04:26:49.682Z,99057.69
2019-01-13T04:27:20.925Z,99055.14
2019-01-13T04:27:52.219Z,99057.78
2019-01-13T04:28:23.427Z,99056.95
2019-01-13T04:28:54.684Z,99057.39
2019-01-13T04:29:25.894Z,99056.58
2019-01-13T04:29:57.110Z,98770.78
2019-01-13T04:30:28.366Z,99061.32
2019-01-13T04:30:59.588Z,99057.95
2019-01-13T04:31:30.900Z,99060.55
2019-01-13T04:32:02.185Z,99054.56
2019-01-13T04:32:33.400Z,99062.28
2019-01-13T04:33:04.687Z,99056.34
2019-01-13T04:33:35.974Z,99059.30
2019-01-13T04:34:07.186Z,99064.86
2019-01-13T04:34:38.468Z,99061.91
2019-01-13T04:35:09.689Z,99064.52
2019-01-13T04:35:40.966Z,99062.87
2019-01-13T04:36:12.290Z,99065.05
2019-01-13T04:36:43.567Z,99065.05
2019-01-13T04:37:14.822Z,99063.78
2019-01-13T04:37:46.014Z,99068.05
2019-01-13T04:38:17.242Z,99066.34
2019-01-13T04:38:48.486Z,99059.13
2019-01-13T04:39:19.687Z,99064.74
2019-01-13T04:39:50.899Z,99066.05
2019-01-13T04:40:22.122Z,99065.70
2019-01-13T04:40:53.319Z,99066.60
2019-01-13T04:41:25.055Z,99070.06
2019-01-13T04:41:56.335Z,99061.17
2019-01-13T04:42:27.563Z,99063.75
2019-01-13T04:43:01.040Z,99071.48
2019-01-13T04:43:32.254Z,99068.09
2019-01-13T04:44:03.509Z,99063.42
2019-01-13T04:44:34.799Z,99063.87
2019-01-13T04:45:06.036Z,99064.76
2019-01-13T04:45:37.242Z,99066.48
2019-01-13T04:46:08.503Z,99069.94
2019-01-13T04:46:39.755Z,99072.97
2019-01-13T04:47:10.976Z,99068.75
2019-01-13T04:47:42.212Z,99077.72
2019-01-13T04:48:13.522Z,99064.04
2019-01-13T04:48:44.676Z,99066.64
2019-01-13T04:49:15.925Z,99062.41
2019-01-13T04:49:47.142Z,99066.25
2019-01-13T04:50:18.387Z,99064.97
2019-01-13T04:50:49.584Z,99071.77
2019-01-13T04:51:20.797Z,99073.05
2019-01-13T04:51:52.020Z,99058.13
2019-01-13T04:52:23.216Z,99058.13
2019-01-13T04:52:54.452Z,99068.42
2019-01-13T04:53:25.719Z,99067.19
2019-01-13T04:53:56.963Z,99067.19
2019-01-13T04:54:28.177Z,99070.20
2019-01-13T04:54:59.385Z,98863.37
2019-01-13T04:55:30.607Z,99067.68
2019-01-13T04:56:01.829Z,99072.41
2019-01-13T04:56:33.076Z,99071.97
2019-01-13T04:57:04.283Z,99069.02
2019-01-13T04:57:35.490Z,99068.61
2019-01-13T04:58:06.758Z,99072.02
2019-01-13T04:58:37.972Z,99066.89
2019-01-13T04:59:09.235Z,99066.89
2019-01-13T04:59:40.516Z,99067.78
2019-01-13T05:00:11.698Z,99067.78
2019-01-13T05:00:42.943Z,99071.63
2019-01-13T05:01:14.160Z,99071.63
2019-01-13T05:01:45.355Z,99072.06
2019-01-13T05:02:16.581Z,99075.95
2019-01-13T05:02:47.796Z,99075.55
2019-01-13T05:03:19.066Z,99076.38
2019-01-13T05:03:50.319Z,99075.15
2019-01-13T05:04:21.547Z,99067.91
2019-01-13T05:04:52.740Z,99067.91
2019-01-13T05:05:23.994Z,99076.03
2019-01-13T05:05:55.187Z,99078.16
2019-01-13T05:06:26.444Z,98809.72
2019-01-13T05:06:57.712Z,99070.91
2019-01-13T05:07:28.966Z,99071.31
2019-01-13T05:08:00.190Z,99071.31
2019-01-13T05:08:31.445Z,99071.31
2019-01-13T05:09:02.653Z,99065.34
2019-01-13T05:09:33.890Z,99073.87
2019-01-13T05:10:05.158Z,99069.19
2019-01-13T05:10:36.432Z,99069.19
2019-01-13T05:11:07.646Z,99073.03
2019-01-13T05:11:38.841Z,99069.19
2019-01-13T05:12:10.080Z,99069.63
2019-01-13T05:12:41.358Z,99070.91
2019-01-13T05:13:12.565Z,99075.62
2019-01-13T05:13:43.846Z,99074.79
2019-01-13T05:14:15.015Z,99072.67
2019-01-13T05:14:46.241Z,99070.10
2019-01-13T05:15:17.500Z,99078.20
2019-01-13T05:15:48.739Z,99076.47
2019-01-13T05:16:19.981Z,99078.20
2019-01-13T05:16:51.274Z,99072.23
2019-01-13T05:17:22.661Z,99073.07
2019-01-13T05:17:53.872Z,99073.07
2019-01-13T05:18:25.107Z,99078.63
2019-01-13T05:18:56.324Z,99079.51
2019-01-13T05:19:27.578Z,99076.95
2019-01-13T05:19:58.751Z,99075.70
2019-01-13T05:20:29.932Z,99079.98
2019-01-13T05:21:01.226Z,99080.83
2019-01-13T05:21:32.399Z,99080.87
2019-01-13T05:22:03.638Z,99083.42
2019-01-13T05:22:34.917Z,99086.84
2019-01-13T05:23:06.127Z,99080.91
2019-01-13T05:23:37.332Z,99083.88
2019-01-13T05:24:08.536Z,99090.23
2019-01-13T05:24:39.692Z,99090.23
2019-01-13T05:25:10.919Z,99090.68
2019-01-13T05:25:42.118Z,99083.83
2019-01-13T05:26:13.301Z,99093.68
2019-01-13T05:26:44.490Z,99093.68
2019-01-13T05:27:15.727Z,99086.87
2019-01-13T05:27:46.974Z,99082.59
2019-01-13T05:28:18.185Z,99080.47
2019-01-13T05:28:49.413Z,99077.50
2019-01-13T05:29:20.622Z,99084.34
2019-01-13T05:29:51.804Z,99086.06
2019-01-13T05:30:23.012Z,99087.34
2019-01-13T05:30:54.317Z,99080.53
2019-01-13T05:31:25.523Z,99083.09
2019-01-13T05:31:56.772Z,99086.09
2019-01-13T05:32:27.975Z,99083.97
2019-01-13T05:32:59.170Z,99084.84
2019-01-13T05:33:30.381Z,99084.44
2019-01-13T05:34:01.641Z,99079.31
2019-01-13T05:34:32.900Z,99079.72
2019-01-13T05:35:04.077Z,99078.03
2019-01-13T05:35:35.282Z,99084.41
2019-01-13T05:36:06.507Z,99075.84
2019-01-13T05:36:37.752Z,99075.84
2019-01-13T05:37:08.991Z,99080.53
2019-01-13T05:37:40.202Z,99085.22
2019-01-13T05:38:11.423Z,99082.66
2019-01-13T05:38:42.653Z,99077.09
2019-01-13T05:39:13.882Z,99080.53
2019-01-13T05:39:45.134Z,99081.78
2019-01-13T05:40:16.401Z,99081.81
2019-01-13T05:40:48.728Z,99081.81
2019-01-13T05:41:20.030Z,99082.66
2019-01-13T05:41:51.198Z,99080.09
2019-01-13T05:42:22.427Z,99085.22
2019-01-13T05:42:53.649Z,99083.50
2019-01-13T05:43:24.838Z,99083.50
2019-01-13T05:43:56.021Z,99086.50
2019-01-13T05:44:27.202Z,99086.91
2019-01-13T05:44:59.856Z,99087.75
2019-01-13T05:45:31.108Z,99092.03
2019-01-13T05:46:02.349Z,99089.47
2019-01-13T05:46:33.532Z,99092.88
2019-01-13T05:47:04.826Z,99094.59
2019-01-13T05:47:36.031Z,99092.44
2019-01-13T05:48:07.244Z,99089.88
2019-01-13T05:48:38.435Z,99095.44
2019-01-13T05:49:09.671Z,99083.91
2019-01-13T05:49:40.874Z,99095.00
2019-01-13T05:50:12.050Z,99092.88
2019-01-13T05:50:43.221Z,99095.84
2019-01-13T05:51:14.402Z,99096.72
2019-01-13T05:51:45.641Z,99102.69
2019-01-13T05:52:16.898Z,99098.44
2019-01-13T05:52:48.104Z,99093.72
2019-01-13T05:53:19.282Z,99091.59
2019-01-13T05:53:50.480Z,99093.31
2019-01-13T05:54:21.681Z,99095.44
2019-01-13T05:54:52.898Z,99094.59
2019-01-13T05:55:24.031Z,99101.41
2019-01-13T05:55:55.243Z,99108.69
2019-01-13T05:56:26.451Z,99096.72
2019-01-13T05:56:57.741Z,99103.56
2019-01-13T05:57:28.991Z,99105.28
2019-01-13T05:58:00.161Z,99100.59
2019-01-13T05:58:31.428Z,99100.59
2019-01-13T05:59:02.644Z,99102.31
2019-01-13T05:59:33.848Z,99087.81
2019-01-13T06:00:05.087Z,99090.38
2019-01-13T06:00:36.336Z,99095.50
2019-01-13T06:01:07.583Z,99097.22
2019-01-13T06:01:38.861Z,99086.13
2019-01-13T06:02:10.115Z,99097.25
2019-01-13T06:02:41.356Z,99095.56
2019-01-13T06:03:12.546Z,99093.84
2019-01-13T06:03:43.779Z,99099.41
2019-01-13T06:04:14.956Z,99099.41
2019-01-13T06:04:46.191Z,99096.00
2019-01-13T06:05:17.376Z,98919.17
2019-01-13T06:05:48.747Z,99088.75
2019-01-13T06:06:19.959Z,99091.75
2019-01-13T06:06:51.214Z,99096.47
2019-01-13T06:07:24.004Z,99097.31
2019-01-13T06:07:55.192Z,99091.31